sensor_id;sensor_type;location;lat;lon;timestamp;P1;durP1;ratioP1;P2;durP2;ratioP2
69910;SDS011;63555;49.920;17.868;2024-03-08T00:00:00;44.43;;;18.13;;
69910;SDS011;63555;49.920;17.868;2024-03-08T00:05:09;52.22;;;20.40;;
69910;SDS011;63555;49.920;17.868;2024-03-08T00:10:11;47.60;;;18.53;;
69910;SDS011;63555;49.920;17.868;2024-03-08T00:15:13;47.23;;;18.83;;
69910;SDS011;63555;49.920;17.868;2024-03-08T00:20:15;44.83;;;17.77;;
69910;SDS011;63555;49.920;17.868;2024-03-08T00:25:17;45.20;;;17.20;;
69910;SDS011;63555;49.920;17.868;2024-03-08T00:30:18;45.95;;;18.30;;
69910;SDS011;63555;49.920;17.868;2024-03-08T00:35:18;45.37;;;18.43;;
69910;SDS011;63555;49.920;17.868;2024-03-08T00:40:19;50.30;;;19.13;;
69910;SDS011;63555;49.920;17.868;2024-03-08T00:45:19;47.13;;;19.17;;
69910;SDS011;63555;49.920;17.868;2024-03-08T00:50:20;50.00;;;19.23;;
69910;SDS011;63555;49.920;17.868;2024-03-08T00:55:20;43.33;;;18.07;;
69910;SDS011;63555;49.920;17.868;2024-03-08T01:00:21;51.93;;;19.83;;
69910;SDS011;63555;49.920;17.868;2024-03-08T01:05:21;52.20;;;18.93;;
69910;SDS011;63555;49.920;17.868;2024-03-08T01:10:24;56.03;;;19.73;;
69910;SDS011;63555;49.920;17.868;2024-03-08T01:15:24;49.87;;;19.70;;
69910;SDS011;63555;49.920;17.868;2024-03-08T01:20:25;45.55;;;16.10;;
69910;SDS011;63555;49.920;17.868;2024-03-08T01:25:25;52.03;;;19.37;;
69910;SDS011;63555;49.920;17.868;2024-03-08T01:30:26;48.92;;;19.17;;
69910;SDS011;63555;49.920;17.868;2024-03-08T01:35:26;51.20;;;20.17;;
69910;SDS011;63555;49.920;17.868;2024-03-08T01:40:27;53.28;;;19.75;;
69910;SDS011;63555;49.920;17.868;2024-03-08T01:45:27;45.80;;;15.53;;
69910;SDS011;63555;49.920;17.868;2024-03-08T01:50:28;55.50;;;19.90;;
69910;SDS011;63555;49.920;17.868;2024-03-08T01:55:28;49.97;;;18.57;;
69910;SDS011;63555;49.920;17.868;2024-03-08T02:00:28;49.00;;;19.83;;
69910;SDS011;63555;49.920;17.868;2024-03-08T02:05:30;56.20;;;21.30;;
69910;SDS011;63555;49.920;17.868;2024-03-08T02:10:30;51.70;;;20.07;;
69910;SDS011;63555;49.920;17.868;2024-03-08T02:15:49;48.80;;;19.13;;
69910;SDS011;63555;49.920;17.868;2024-03-08T02:20:57;57.70;;;21.10;;
69910;SDS011;63555;49.920;17.868;2024-03-08T02:25:59;61.13;;;19.83;;
69910;SDS011;63555;49.920;17.868;2024-03-08T02:30:59;54.23;;;20.83;;
69910;SDS011;63555;49.920;17.868;2024-03-08T02:36:00;49.37;;;19.60;;
69910;SDS011;63555;49.920;17.868;2024-03-08T02:41:00;51.07;;;20.27;;
69910;SDS011;63555;49.920;17.868;2024-03-08T02:46:01;54.70;;;20.07;;
69910;SDS011;63555;49.920;17.868;2024-03-08T02:51:01;53.73;;;20.33;;
69910;SDS011;63555;49.920;17.868;2024-03-08T02:56:02;52.80;;;20.53;;
69910;SDS011;63555;49.920;17.868;2024-03-08T03:01:02;59.73;;;21.70;;
69910;SDS011;63555;49.920;17.868;2024-03-08T03:06:03;53.17;;;20.57;;
69910;SDS011;63555;49.920;17.868;2024-03-08T03:11:03;56.33;;;21.48;;
69910;SDS011;63555;49.920;17.868;2024-03-08T03:16:04;50.23;;;20.60;;
69910;SDS011;63555;49.920;17.868;2024-03-08T03:21:04;52.87;;;19.47;;
69910;SDS011;63555;49.920;17.868;2024-03-08T03:26:08;43.70;;;18.37;;
69910;SDS011;63555;49.920;17.868;2024-03-08T03:31:10;48.58;;;17.95;;
69910;SDS011;63555;49.920;17.868;2024-03-08T03:36:14;52.28;;;19.75;;
69910;SDS011;63555;49.920;17.868;2024-03-08T03:41:14;44.13;;;17.30;;
69910;SDS011;63555;49.920;17.868;2024-03-08T03:46:14;50.07;;;17.70;;
69910;SDS011;63555;49.920;17.868;2024-03-08T03:51:15;46.13;;;17.65;;
69910;SDS011;63555;49.920;17.868;2024-03-08T03:56:16;40.90;;;17.87;;
69910;SDS011;63555;49.920;17.868;2024-03-08T04:01:16;47.77;;;18.00;;
69910;SDS011;63555;49.920;17.868;2024-03-08T04:06:16;52.40;;;19.53;;
69910;SDS011;63555;49.920;17.868;2024-03-08T04:11:17;59.13;;;20.43;;
69910;SDS011;63555;49.920;17.868;2024-03-08T04:16:17;67.03;;;20.97;;
69910;SDS011;63555;49.920;17.868;2024-03-08T04:21:19;56.77;;;19.87;;
69910;SDS011;63555;49.920;17.868;2024-03-08T04:26:19;63.45;;;22.38;;
69910;SDS011;63555;49.920;17.868;2024-03-08T04:31:20;66.40;;;21.17;;
69910;SDS011;63555;49.920;17.868;2024-03-08T04:36:21;59.85;;;22.13;;
69910;SDS011;63555;49.920;17.868;2024-03-08T04:41:22;58.80;;;20.83;;
69910;SDS011;63555;49.920;17.868;2024-03-08T04:46:23;60.70;;;23.20;;
69910;SDS011;63555;49.920;17.868;2024-03-08T04:51:24;58.38;;;21.67;;
69910;SDS011;63555;49.920;17.868;2024-03-08T04:56:25;59.83;;;23.17;;
69910;SDS011;63555;49.920;17.868;2024-03-08T05:01:25;59.87;;;24.43;;
69910;SDS011;63555;49.920;17.868;2024-03-08T05:06:26;68.83;;;24.40;;
69910;SDS011;63555;49.920;17.868;2024-03-08T05:11:26;53.93;;;21.77;;
69910;SDS011;63555;49.920;17.868;2024-03-08T05:16:27;57.03;;;21.63;;
69910;SDS011;63555;49.920;17.868;2024-03-08T05:21:27;56.73;;;22.23;;
69910;SDS011;63555;49.920;17.868;2024-03-08T05:26:28;60.83;;;22.10;;
69910;SDS011;63555;49.920;17.868;2024-03-08T05:31:36;65.57;;;24.52;;
69910;SDS011;63555;49.920;17.868;2024-03-08T05:36:48;73.45;;;26.15;;
69910;SDS011;63555;49.920;17.868;2024-03-08T05:41:51;69.50;;;26.25;;
69910;SDS011;63555;49.920;17.868;2024-03-08T05:46:52;80.00;;;25.97;;
69910;SDS011;63555;49.920;17.868;2024-03-08T05:51:53;79.20;;;26.00;;
69910;SDS011;63555;49.920;17.868;2024-03-08T05:56:54;76.25;;;25.98;;
69910;SDS011;63555;49.920;17.868;2024-03-08T06:01:54;77.53;;;26.50;;
69910;SDS011;63555;49.920;17.868;2024-03-08T06:06:56;71.53;;;24.77;;
69910;SDS011;63555;49.920;17.868;2024-03-08T06:11:58;67.28;;;26.75;;
69910;SDS011;63555;49.920;17.868;2024-03-08T06:16:58;66.00;;;26.37;;
69910;SDS011;63555;49.920;17.868;2024-03-08T06:22:00;73.07;;;25.40;;
69910;SDS011;63555;49.920;17.868;2024-03-08T06:27:03;70.43;;;24.77;;
69910;SDS011;63555;49.920;17.868;2024-03-08T06:32:03;76.73;;;26.33;;
69910;SDS011;63555;49.920;17.868;2024-03-08T06:37:04;60.33;;;23.50;;
69910;SDS011;63555;49.920;17.868;2024-03-08T06:42:04;61.60;;;25.95;;
69910;SDS011;63555;49.920;17.868;2024-03-08T06:47:05;72.05;;;26.02;;
69910;SDS011;63555;49.920;17.868;2024-03-08T06:52:06;59.25;;;24.88;;
69910;SDS011;63555;49.920;17.868;2024-03-08T06:57:08;58.83;;;24.52;;
69910;SDS011;63555;49.920;17.868;2024-03-08T07:02:10;62.17;;;23.20;;
69910;SDS011;63555;49.920;17.868;2024-03-08T07:07:10;63.57;;;25.93;;
69910;SDS011;63555;49.920;17.868;2024-03-08T07:12:11;60.03;;;24.67;;
69910;SDS011;63555;49.920;17.868;2024-03-08T07:17:13;62.17;;;25.05;;
69910;SDS011;63555;49.920;17.868;2024-03-08T07:22:13;64.97;;;26.53;;
69910;SDS011;63555;49.920;17.868;2024-03-08T07:27:14;64.37;;;25.67;;
69910;SDS011;63555;49.920;17.868;2024-03-08T07:32:15;64.63;;;26.70;;
69910;SDS011;63555;49.920;17.868;2024-03-08T07:37:21;70.53;;;28.27;;
69910;SDS011;63555;49.920;17.868;2024-03-08T07:42:21;61.03;;;26.23;;
69910;SDS011;63555;49.920;17.868;2024-03-08T07:47:24;61.45;;;25.02;;
69910;SDS011;63555;49.920;17.868;2024-03-08T07:52:26;60.10;;;25.63;;
69910;SDS011;63555;49.920;17.868;2024-03-08T07:57:26;65.63;;;27.10;;
69910;SDS011;63555;49.920;17.868;2024-03-08T08:02:26;55.37;;;22.70;;
69910;SDS011;63555;49.920;17.868;2024-03-08T08:07:27;58.83;;;24.57;;
69910;SDS011;63555;49.920;17.868;2024-03-08T08:12:27;39.83;;;17.67;;
69910;SDS011;63555;49.920;17.868;2024-03-08T08:17:29;51.28;;;22.80;;
69910;SDS011;63555;49.920;17.868;2024-03-08T08:22:29;53.87;;;22.03;;
69910;SDS011;63555;49.920;17.868;2024-03-08T08:27:29;51.77;;;22.93;;
69910;SDS011;63555;49.920;17.868;2024-03-08T08:32:30;47.83;;;22.10;;
69910;SDS011;63555;49.920;17.868;2024-03-08T08:37:31;54.17;;;21.87;;
69910;SDS011;63555;49.920;17.868;2024-03-08T08:42:32;53.42;;;21.83;;
69910;SDS011;63555;49.920;17.868;2024-03-08T08:47:32;53.23;;;23.33;;
69910;SDS011;63555;49.920;17.868;2024-03-08T08:52:33;52.97;;;23.38;;
69910;SDS011;63555;49.920;17.868;2024-03-08T08:57:34;48.45;;;21.52;;
69910;SDS011;63555;49.920;17.868;2024-03-08T09:02:35;43.60;;;20.07;;
69910;SDS011;63555;49.920;17.868;2024-03-08T09:07:37;47.40;;;22.93;;
69910;SDS011;63555;49.920;17.868;2024-03-08T09:12:38;46.17;;;21.17;;
69910;SDS011;63555;49.920;17.868;2024-03-08T09:17:39;48.70;;;21.80;;
69910;SDS011;63555;49.920;17.868;2024-03-08T09:22:43;41.35;;;18.63;;
69910;SDS011;63555;49.920;17.868;2024-03-08T09:27:45;42.77;;;21.47;;
69910;SDS011;63555;49.920;17.868;2024-03-08T09:32:46;45.58;;;20.27;;
69910;SDS011;63555;49.920;17.868;2024-03-08T09:37:47;43.08;;;20.27;;
69910;SDS011;63555;49.920;17.868;2024-03-08T09:42:50;44.00;;;20.03;;
69910;SDS011;63555;49.920;17.868;2024-03-08T09:47:52;44.65;;;19.27;;
69910;SDS011;63555;49.920;17.868;2024-03-08T09:52:54;43.45;;;19.77;;
69910;SDS011;63555;49.920;17.868;2024-03-08T09:57:57;44.70;;;19.73;;
69910;SDS011;63555;49.920;17.868;2024-03-08T10:03:20;46.28;;;20.67;;
69910;SDS011;63555;49.920;17.868;2024-03-08T10:08:20;52.20;;;21.53;;
69910;SDS011;63555;49.920;17.868;2024-03-08T10:13:20;43.97;;;20.40;;
69910;SDS011;63555;49.920;17.868;2024-03-08T10:18:21;47.53;;;21.13;;
69910;SDS011;63555;49.920;17.868;2024-03-08T10:23:22;50.70;;;21.43;;
69910;SDS011;63555;49.920;17.868;2024-03-08T10:28:23;52.60;;;23.63;;
69910;SDS011;63555;49.920;17.868;2024-03-08T10:33:24;48.93;;;21.53;;
69910;SDS011;63555;49.920;17.868;2024-03-08T10:38:27;39.63;;;17.90;;
69910;SDS011;63555;49.920;17.868;2024-03-08T10:43:35;45.30;;;19.00;;
69910;SDS011;63555;49.920;17.868;2024-03-08T10:48:55;41.03;;;19.67;;
69910;SDS011;63555;49.920;17.868;2024-03-08T10:53:59;46.00;;;18.90;;
69910;SDS011;63555;49.920;17.868;2024-03-08T10:59:00;44.60;;;18.73;;
69910;SDS011;63555;49.920;17.868;2024-03-08T11:04:01;39.95;;;18.05;;
69910;SDS011;63555;49.920;17.868;2024-03-08T11:14:43;42.60;;;18.83;;
69910;SDS011;63555;49.920;17.868;2024-03-08T11:19:48;46.88;;;20.20;;
69910;SDS011;63555;49.920;17.868;2024-03-08T11:24:49;39.70;;;18.73;;
69910;SDS011;63555;49.920;17.868;2024-03-08T11:29:59;40.30;;;18.70;;
69910;SDS011;63555;49.920;17.868;2024-03-08T11:35:20;43.05;;;18.90;;
69910;SDS011;63555;49.920;17.868;2024-03-08T11:40:23;39.83;;;19.15;;
69910;SDS011;63555;49.920;17.868;2024-03-08T11:45:23;44.70;;;20.27;;
69910;SDS011;63555;49.920;17.868;2024-03-08T11:50:24;46.97;;;20.17;;
69910;SDS011;63555;49.920;17.868;2024-03-08T11:55:27;42.65;;;19.15;;
69910;SDS011;63555;49.920;17.868;2024-03-08T12:00:29;42.72;;;17.50;;
69910;SDS011;63555;49.920;17.868;2024-03-08T12:05:35;42.60;;;19.73;;
69910;SDS011;63555;49.920;17.868;2024-03-08T12:10:36;37.47;;;18.02;;
69910;SDS011;63555;49.920;17.868;2024-03-08T12:15:36;45.83;;;20.63;;
69910;SDS011;63555;49.920;17.868;2024-03-08T12:20:37;40.67;;;18.33;;
69910;SDS011;63555;49.920;17.868;2024-03-08T12:25:39;35.80;;;18.17;;
69910;SDS011;63555;49.920;17.868;2024-03-08T12:30:46;33.38;;;17.08;;
69910;SDS011;63555;49.920;17.868;2024-03-08T12:35:54;36.70;;;16.52;;
69910;SDS011;63555;49.920;17.868;2024-03-08T12:40:55;37.30;;;16.17;;
69910;SDS011;63555;49.920;17.868;2024-03-08T12:45:58;36.22;;;18.10;;
69910;SDS011;63555;49.920;17.868;2024-03-08T12:50:58;35.77;;;17.90;;
69910;SDS011;63555;49.920;17.868;2024-03-08T12:55:59;33.53;;;16.37;;
69910;SDS011;63555;49.920;17.868;2024-03-08T13:00:59;32.87;;;18.00;;
69910;SDS011;63555;49.920;17.868;2024-03-08T13:06:00;33.37;;;16.83;;
69910;SDS011;63555;49.920;17.868;2024-03-08T13:11:01;33.72;;;16.92;;
69910;SDS011;63555;49.920;17.868;2024-03-08T13:16:02;29.53;;;15.00;;
69910;SDS011;63555;49.920;17.868;2024-03-08T13:21:03;30.40;;;15.25;;
69910;SDS011;63555;49.920;17.868;2024-03-08T13:26:08;31.70;;;15.83;;
69910;SDS011;63555;49.920;17.868;2024-03-08T13:31:09;30.50;;;15.85;;
69910;SDS011;63555;49.920;17.868;2024-03-08T13:36:14;28.47;;;14.40;;
69910;SDS011;63555;49.920;17.868;2024-03-08T13:41:16;34.28;;;16.65;;
69910;SDS011;63555;49.920;17.868;2024-03-08T13:46:17;30.83;;;14.77;;
69910;SDS011;63555;49.920;17.868;2024-03-08T13:51:17;30.63;;;15.43;;
69910;SDS011;63555;49.920;17.868;2024-03-08T13:56:18;32.43;;;16.50;;
69910;SDS011;63555;49.920;17.868;2024-03-08T14:01:18;29.20;;;14.87;;
69910;SDS011;63555;49.920;17.868;2024-03-08T14:06:21;32.28;;;18.38;;
69910;SDS011;63555;49.920;17.868;2024-03-08T14:11:24;32.33;;;17.67;;
69910;SDS011;63555;49.920;17.868;2024-03-08T14:16:24;32.73;;;17.27;;
69910;SDS011;63555;49.920;17.868;2024-03-08T14:21:25;32.67;;;17.47;;
69910;SDS011;63555;49.920;17.868;2024-03-08T14:26:25;34.92;;;17.83;;
69910;SDS011;63555;49.920;17.868;2024-03-08T14:31:26;35.47;;;18.70;;
69910;SDS011;63555;49.920;17.868;2024-03-08T14:36:28;33.93;;;17.50;;
69910;SDS011;63555;49.920;17.868;2024-03-08T14:41:28;37.80;;;17.50;;
69910;SDS011;63555;49.920;17.868;2024-03-08T14:46:29;31.98;;;17.50;;
69910;SDS011;63555;49.920;17.868;2024-03-08T14:51:30;34.88;;;17.65;;
69910;SDS011;63555;49.920;17.868;2024-03-08T14:56:32;36.30;;;17.40;;
69910;SDS011;63555;49.920;17.868;2024-03-08T15:01:33;34.17;;;17.88;;
69910;SDS011;63555;49.920;17.868;2024-03-08T15:06:36;40.90;;;19.23;;
69910;SDS011;63555;49.920;17.868;2024-03-08T15:11:40;38.78;;;18.42;;
69910;SDS011;63555;49.920;17.868;2024-03-08T15:16:42;38.33;;;18.20;;
69910;SDS011;63555;49.920;17.868;2024-03-08T15:21:43;40.58;;;18.13;;
69910;SDS011;63555;49.920;17.868;2024-03-08T15:26:48;37.53;;;16.80;;
69910;SDS011;63555;49.920;17.868;2024-03-08T15:31:54;36.80;;;17.70;;
69910;SDS011;63555;49.920;17.868;2024-03-08T15:36:54;47.47;;;21.53;;
69910;SDS011;63555;49.920;17.868;2024-03-08T15:41:57;55.65;;;23.50;;
69910;SDS011;63555;49.920;17.868;2024-03-08T15:46:58;48.77;;;21.60;;
69910;SDS011;63555;49.920;17.868;2024-03-08T15:51:58;61.73;;;24.83;;
69910;SDS011;63555;49.920;17.868;2024-03-08T15:56:59;40.30;;;19.60;;
69910;SDS011;63555;49.920;17.868;2024-03-08T16:01:59;40.07;;;18.80;;
69910;SDS011;63555;49.920;17.868;2024-03-08T16:07:00;43.67;;;18.10;;
69910;SDS011;63555;49.920;17.868;2024-03-08T16:12:00;45.10;;;18.33;;
69910;SDS011;63555;49.920;17.868;2024-03-08T16:17:00;36.17;;;16.10;;
69910;SDS011;63555;49.920;17.868;2024-03-08T16:22:01;34.70;;;14.83;;
69910;SDS011;63555;49.920;17.868;2024-03-08T16:27:01;39.20;;;16.20;;
69910;SDS011;63555;49.920;17.868;2024-03-08T16:32:04;42.40;;;17.52;;
69910;SDS011;63555;49.920;17.868;2024-03-08T16:37:05;47.47;;;19.10;;
69910;SDS011;63555;49.920;17.868;2024-03-08T16:42:06;49.37;;;20.03;;
69910;SDS011;63555;49.920;17.868;2024-03-08T16:47:07;37.63;;;17.48;;
69910;SDS011;63555;49.920;17.868;2024-03-08T16:52:08;46.93;;;18.33;;
69910;SDS011;63555;49.920;17.868;2024-03-08T16:57:08;65.20;;;25.00;;
69910;SDS011;63555;49.920;17.868;2024-03-08T17:02:14;57.47;;;21.88;;
69910;SDS011;63555;49.920;17.868;2024-03-08T17:07:14;55.53;;;23.03;;
69910;SDS011;63555;49.920;17.868;2024-03-08T17:12:15;52.45;;;20.02;;
69910;SDS011;63555;49.920;17.868;2024-03-08T17:17:18;50.63;;;20.60;;
69910;SDS011;63555;49.920;17.868;2024-03-08T17:22:20;52.47;;;21.13;;
69910;SDS011;63555;49.920;17.868;2024-03-08T17:27:21;49.87;;;21.80;;
69910;SDS011;63555;49.920;17.868;2024-03-08T17:32:24;54.70;;;22.08;;
69910;SDS011;63555;49.920;17.868;2024-03-08T17:37:25;47.47;;;20.83;;
69910;SDS011;63555;49.920;17.868;2024-03-08T17:42:25;53.90;;;20.77;;
69910;SDS011;63555;49.920;17.868;2024-03-08T17:47:26;45.10;;;19.83;;
69910;SDS011;63555;49.920;17.868;2024-03-08T17:52:26;52.63;;;19.70;;
69910;SDS011;63555;49.920;17.868;2024-03-08T17:57:27;43.47;;;18.77;;
69910;SDS011;63555;49.920;17.868;2024-03-08T18:02:27;51.20;;;19.10;;
69910;SDS011;63555;49.920;17.868;2024-03-08T18:07:28;56.80;;;22.20;;
69910;SDS011;63555;49.920;17.868;2024-03-08T18:12:28;61.15;;;24.33;;
69910;SDS011;63555;49.920;17.868;2024-03-08T18:17:30;56.57;;;22.47;;
69910;SDS011;63555;49.920;17.868;2024-03-08T18:22:32;62.83;;;24.98;;
69910;SDS011;63555;49.920;17.868;2024-03-08T18:27:33;51.63;;;22.33;;
69910;SDS011;63555;49.920;17.868;2024-03-08T18:32:33;49.80;;;19.07;;
69910;SDS011;63555;49.920;17.868;2024-03-08T18:37:34;46.90;;;19.00;;
69910;SDS011;63555;49.920;17.868;2024-03-08T18:42:34;42.23;;;17.47;;
69910;SDS011;63555;49.920;17.868;2024-03-08T18:47:35;41.60;;;17.70;;
69910;SDS011;63555;49.920;17.868;2024-03-08T18:52:36;43.67;;;17.23;;
69910;SDS011;63555;49.920;17.868;2024-03-08T18:57:37;45.93;;;18.37;;
69910;SDS011;63555;49.920;17.868;2024-03-08T19:02:40;45.67;;;19.30;;
69910;SDS011;63555;49.920;17.868;2024-03-08T19:07:42;67.10;;;29.60;;
69910;SDS011;63555;49.920;17.868;2024-03-08T19:12:43;72.60;;;28.55;;
69910;SDS011;63555;49.920;17.868;2024-03-08T19:17:44;69.90;;;29.87;;
69910;SDS011;63555;49.920;17.868;2024-03-08T19:22:55;71.75;;;26.98;;
69910;SDS011;63555;49.920;17.868;2024-03-08T19:28:02;60.97;;;22.13;;
69910;SDS011;63555;49.920;17.868;2024-03-08T19:33:06;60.35;;;23.85;;
69910;SDS011;63555;49.920;17.868;2024-03-08T19:38:13;53.77;;;22.77;;
69910;SDS011;63555;49.920;17.868;2024-03-08T19:43:15;54.10;;;20.52;;
69910;SDS011;63555;49.920;17.868;2024-03-08T19:48:15;47.37;;;18.67;;
69910;SDS011;63555;49.920;17.868;2024-03-08T19:53:16;46.80;;;19.83;;
69910;SDS011;63555;49.920;17.868;2024-03-08T19:58:16;57.50;;;22.50;;
69910;SDS011;63555;49.920;17.868;2024-03-08T20:03:17;57.37;;;21.50;;
69910;SDS011;63555;49.920;17.868;2024-03-08T20:08:21;59.58;;;21.45;;
69910;SDS011;63555;49.920;17.868;2024-03-08T20:13:23;59.13;;;22.90;;
69910;SDS011;63555;49.920;17.868;2024-03-08T20:18:23;54.63;;;23.03;;
69910;SDS011;63555;49.920;17.868;2024-03-08T20:23:26;54.55;;;20.08;;
69910;SDS011;63555;49.920;17.868;2024-03-08T20:28:26;51.13;;;21.50;;
69910;SDS011;63555;49.920;17.868;2024-03-08T20:33:26;51.80;;;21.13;;
69910;SDS011;63555;49.920;17.868;2024-03-08T20:38:27;69.63;;;27.03;;
69910;SDS011;63555;49.920;17.868;2024-03-08T20:43:27;69.37;;;25.60;;
69910;SDS011;63555;49.920;17.868;2024-03-08T20:48:27;65.00;;;25.73;;
69910;SDS011;63555;49.920;17.868;2024-03-08T20:53:28;61.20;;;23.90;;
69910;SDS011;63555;49.920;17.868;2024-03-08T20:58:28;57.83;;;23.83;;
69910;SDS011;63555;49.920;17.868;2024-03-08T21:03:29;68.40;;;26.17;;
69910;SDS011;63555;49.920;17.868;2024-03-08T21:08:31;64.67;;;26.00;;
69910;SDS011;63555;49.920;17.868;2024-03-08T21:13:34;69.25;;;26.38;;
69910;SDS011;63555;49.920;17.868;2024-03-08T21:18:36;73.75;;;26.42;;
69910;SDS011;63555;49.920;17.868;2024-03-08T21:23:36;69.20;;;26.87;;
69910;SDS011;63555;49.920;17.868;2024-03-08T21:28:37;67.73;;;27.07;;
69910;SDS011;63555;49.920;17.868;2024-03-08T21:33:38;73.73;;;28.57;;
69910;SDS011;63555;49.920;17.868;2024-03-08T21:38:38;74.80;;;28.77;;
69910;SDS011;63555;49.920;17.868;2024-03-08T21:43:38;63.37;;;25.60;;
69910;SDS011;63555;49.920;17.868;2024-03-08T21:48:39;79.17;;;28.27;;
69910;SDS011;63555;49.920;17.868;2024-03-08T21:53:39;76.67;;;28.40;;
69910;SDS011;63555;49.920;17.868;2024-03-08T21:58:40;83.03;;;31.90;;
69910;SDS011;63555;49.920;17.868;2024-03-08T22:03:41;77.67;;;29.77;;
69910;SDS011;63555;49.920;17.868;2024-03-08T22:08:43;85.72;;;32.22;;
69910;SDS011;63555;49.920;17.868;2024-03-08T22:13:43;88.70;;;31.48;;
69910;SDS011;63555;49.920;17.868;2024-03-08T22:18:48;88.18;;;32.92;;
69910;SDS011;63555;49.920;17.868;2024-03-08T22:23:48;89.43;;;33.37;;
69910;SDS011;63555;49.920;17.868;2024-03-08T22:28:48;94.87;;;35.00;;
69910;SDS011;63555;49.920;17.868;2024-03-08T22:33:52;103.50;;;35.05;;
69910;SDS011;63555;49.920;17.868;2024-03-08T22:38:53;96.13;;;32.57;;
69910;SDS011;63555;49.920;17.868;2024-03-08T22:43:53;87.43;;;33.57;;
69910;SDS011;63555;49.920;17.868;2024-03-08T22:48:54;80.30;;;31.10;;
69910;SDS011;63555;49.920;17.868;2024-03-08T22:53:54;77.57;;;29.13;;
69910;SDS011;63555;49.920;17.868;2024-03-08T22:58:55;75.03;;;27.73;;
69910;SDS011;63555;49.920;17.868;2024-03-08T23:03:56;80.65;;;30.02;;
69910;SDS011;63555;49.920;17.868;2024-03-08T23:08:56;75.70;;;28.63;;
69910;SDS011;63555;49.920;17.868;2024-03-08T23:13:57;67.57;;;26.30;;
69910;SDS011;63555;49.920;17.868;2024-03-08T23:18:57;71.97;;;27.90;;
69910;SDS011;63555;49.920;17.868;2024-03-08T23:23:57;74.67;;;26.73;;
69910;SDS011;63555;49.920;17.868;2024-03-08T23:28:58;70.90;;;26.73;;
69910;SDS011;63555;49.920;17.868;2024-03-08T23:33:59;60.55;;;24.70;;
69910;SDS011;63555;49.920;17.868;2024-03-08T23:39:00;61.40;;;24.53;;
69910;SDS011;63555;49.920;17.868;2024-03-08T23:44:00;74.00;;;27.67;;
69910;SDS011;63555;49.920;17.868;2024-03-08T23:49:02;72.40;;;26.48;;
69910;SDS011;63555;49.920;17.868;2024-03-08T23:54:03;67.00;;;27.33;;
69910;SDS011;63555;49.920;17.868;2024-03-08T23:59:04;71.20;;;25.42;;
